Time;durP1;ratioP1;P1;durP2;ratioP2;P2;SDS_P1;SDS_P2;PMS_P1;PMS_P2;Temp;Humidity;BMP_temperature;BMP_pressure;BME280_temperature;BME280_humidity;BME280_pressure;Samples;Min_cycle;Max_cycle;Signal;HPM_P1;HPM_P2
2022/11/05 00:10:48;;;;;;;0.20;0.10;;;;;;;;;;5118697;27;20382;-83
2022/11/05 00:19:05;;;;;;;0.20;0.10;;;;;;;;;;5121045;27;20100;-84
2022/11/05 00:26:59;;;;;;;0.20;0.10;;;;;;;;;;5117131;27;20046;-83
2022/11/05 00:29:25;;;;;;;0.20;0.20;;;;;;;;;;5115038;27;20086;-83
2022/11/05 00:31:51;;;;;;;0.20;0.10;;;;;;;;;;5115388;27;20039;-84
2022/11/05 00:34:17;;;;;;;0.20;0.10;;;;;;;;;;5101946;27;20039;-84
2022/11/05 00:36:43;;;;;;;0.20;0.08;;;;;;;;;;5116311;27;20039;-85
2022/11/05 00:39:10;;;;;;;0.30;0.10;;;;;;;;;;5101980;27;20457;-84
2022/11/05 00:41:36;;;;;;;0.20;0.10;;;;;;;;;;5086433;27;20062;-84
2022/11/05 00:46:46;;;;;;;0.20;0.10;;;;;;;;;;5110237;27;20051;-84
2022/11/05 00:49:30;;;;;;;0.20;0.10;;;;;;;;;;5100087;27;20042;-83
2022/11/05 00:54:41;;;;;;;0.20;0.10;;;;;;;;;;5119480;27;20178;-84
2022/11/05 00:57:07;;;;;;;0.20;0.10;;;;;;;;;;5100722;27;20065;-84
2022/11/05 00:59:33;;;;;;;0.20;0.10;;;;;;;;;;5087389;27;20035;-84
2022/11/05 01:01:59;;;;;;;0.20;0.10;;;;;;;;;;5097946;27;20270;-83
2022/11/05 01:04:25;;;;;;;0.20;0.10;;;;;;;;;;5086403;27;20058;-84
2022/11/05 01:06:51;;;;;;;0.20;0.10;;;;;;;;;;5086067;27;20035;-84
2022/11/05 01:09:17;;;;;;;0.20;0.10;;;;;;;;;;5118697;27;20040;-84
2022/11/05 01:11:44;;;;;;;0.20;0.10;;;;;;;;;;5118150;27;20245;-84
2022/11/05 01:14:12;;;;;;;0.20;0.10;;;;;;;;;;5084092;27;20050;-83
2022/11/05 01:16:38;;;;;;;0.20;0.03;;;;;;;;;;5113333;27;20500;-83
2022/11/05 01:19:05;;;;;;;0.20;0.10;;;;;;;;;;5114480;27;20046;-83
2022/11/05 01:21:31;;;;;;;0.20;0.10;;;;;;;;;;5106853;27;20139;-83
2022/11/05 01:23:57;;;;;;;0.20;0.10;;;;;;;;;;5101511;27;20035;-83
2022/11/05 01:26:23;;;;;;;0.20;0.10;;;;;;;;;;5092286;27;20462;-83
2022/11/05 01:28:50;;;;;;;0.20;0.10;;;;;;;;;;5113541;27;20074;-83
2022/11/05 01:31:16;;;;;;;0.20;0.10;;;;;;;;;;5116218;27;20043;-83
2022/11/05 01:33:42;;;;;;;2.47;0.25;;;;;;;;;;5095546;27;20043;-83
2022/11/05 01:36:08;;;;;;;0.20;0.10;;;;;;;;;;5132828;27;20537;-83
2022/11/05 01:38:34;;;;;;;0.20;0.10;;;;;;;;;;5117698;27;20063;-83
2022/11/05 01:41:01;;;;;;;0.20;0.10;;;;;;;;;;5118394;27;20409;-84
2022/11/05 01:43:44;;;;;;;0.20;0.10;;;;;;;;;;5095565;27;20035;-84
2022/11/05 01:46:10;;;;;;;0.20;0.10;;;;;;;;;;5114729;27;20039;-83
2022/11/05 01:48:37;;;;;;;0.20;0.10;;;;;;;;;;5096036;27;20130;-84
2022/11/05 01:51:05;;;;;;;0.20;0.10;;;;;;;;;;5114224;27;21035;-83
2022/11/05 01:53:47;;;;;;;0.20;0.10;;;;;;;;;;5117078;27;20123;-84
2022/11/05 01:56:24;;;;;;;0.20;0.00;;;;;;;;;;5115584;27;21283;-84
2022/11/05 01:58:54;;;;;;;0.20;0.10;;;;;;;;;;5118059;27;20110;-84
2022/11/05 02:01:20;;;;;;;0.20;0.03;;;;;;;;;;5119639;27;20509;-83
2022/11/05 02:03:47;;;;;;;0.20;0.10;;;;;;;;;;5093956;27;20477;-84
2022/11/05 02:06:15;;;;;;;0.20;0.10;;;;;;;;;;5097926;27;20246;-83
2022/11/05 02:08:44;;;;;;;0.20;0.10;;;;;;;;;;5100246;27;20043;-83
2022/11/05 02:11:12;;;;;;;0.20;0.03;;;;;;;;;;5116109;27;20272;-83
2022/11/05 02:13:38;;;;;;;0.20;0.00;;;;;;;;;;5099978;27;20043;-83
2022/11/05 02:16:13;;;;;;;0.20;0.10;;;;;;;;;;5116630;27;20474;-84
2022/11/05 02:18:55;;;;;;;0.20;0.10;;;;;;;;;;5118819;27;20058;-83
2022/11/05 02:21:40;;;;;;;0.20;0.10;;;;;;;;;;5117873;27;20039;-83
2022/11/05 02:24:12;;;;;;;0.20;0.00;;;;;;;;;;5116380;27;20039;-84
2022/11/05 02:26:57;;;;;;;0.20;0.10;;;;;;;;;;5115976;27;20122;-83
2022/11/05 02:29:31;;;;;;;0.20;0.10;;;;;;;;;;5099269;28;20039;-83
2022/11/05 02:32:03;;;;;;;0.20;0.10;;;;;;;;;;5128363;27;20042;-83
2022/11/05 02:34:29;;;;;;;0.20;0.10;;;;;;;;;;5130158;27;20092;-83
2022/11/05 02:37:09;;;;;;;0.30;0.20;;;;;;;;;;5102380;27;20039;-84
2022/11/05 02:39:41;;;;;;;0.20;0.00;;;;;;;;;;5115727;27;20058;-84
2022/11/05 02:42:19;;;;;;;0.20;0.10;;;;;;;;;;5103127;27;20138;-83
2022/11/05 02:45:04;;;;;;;0.20;0.10;;;;;;;;;;5114725;27;20345;-83
2022/11/05 02:47:50;;;;;;;0.20;0.10;;;;;;;;;;5097887;27;20039;-83
2022/11/05 02:50:16;;;;;;;0.20;0.10;;;;;;;;;;5118344;27;20032;-83
2022/11/05 02:52:44;;;;;;;0.20;0.10;;;;;;;;;;5115424;27;20045;-84
2022/11/05 02:55:29;;;;;;;0.20;0.10;;;;;;;;;;5130677;27;20134;-83
2022/11/05 02:57:55;;;;;;;0.20;0.10;;;;;;;;;;5112528;27;20043;-82
2022/11/05 03:00:34;;;;;;;0.20;0.10;;;;;;;;;;5114651;28;20122;-82
2022/11/05 03:03:00;;;;;;;0.20;0.10;;;;;;;;;;5117730;28;20036;-82
2022/11/05 03:05:33;;;;;;;0.20;0.10;;;;;;;;;;5118810;28;20042;-82
2022/11/05 03:08:04;;;;;;;0.20;0.10;;;;;;;;;;5114712;28;20047;-81
2022/11/05 03:10:51;;;;;;;0.20;0.10;;;;;;;;;;5117381;28;20471;-82
2022/11/05 03:13:21;;;;;;;0.20;0.10;;;;;;;;;;5135774;27;20042;-82
2022/11/05 03:15:59;;;;;;;0.20;0.10;;;;;;;;;;5109091;27;20624;-82
2022/11/05 03:18:32;;;;;;;0.20;0.10;;;;;;;;;;5099876;28;20039;-81
2022/11/05 03:21:10;;;;;;;0.20;0.10;;;;;;;;;;5130460;27;20499;-81
2022/11/05 03:23:44;;;;;;;0.20;0.10;;;;;;;;;;5117463;28;20035;-82
2022/11/05 03:26:17;;;;;;;0.20;0.10;;;;;;;;;;5101834;28;20039;-81
2022/11/05 03:28:45;;;;;;;0.20;0.00;;;;;;;;;;5115511;22;20067;-81
2022/11/05 03:31:13;;;;;;;0.20;0.10;;;;;;;;;;5053334;28;20104;-84
2022/11/05 03:33:40;;;;;;;0.20;0.10;;;;;;;;;;5058036;28;20039;-81
2022/11/05 03:36:10;;;;;;;0.20;0.10;;;;;;;;;;5057362;28;20033;-82
2022/11/05 03:38:38;;;;;;;0.20;0.10;;;;;;;;;;5039421;28;20119;-82
2022/11/05 03:41:06;;;;;;;0.20;0.10;;;;;;;;;;5029600;28;20518;-81
2022/11/05 03:43:34;;;;;;;0.20;0.08;;;;;;;;;;5049201;28;20086;-80
2022/11/05 03:46:02;;;;;;;0.20;0.10;;;;;;;;;;5041045;28;20037;-81
2022/11/05 03:48:30;;;;;;;0.20;0.10;;;;;;;;;;5037410;28;20071;-82
2022/11/05 03:51:02;;;;;;;0.20;0.10;;;;;;;;;;5051965;28;20047;-80
2022/11/05 03:53:29;;;;;;;0.20;0.10;;;;;;;;;;5068606;28;20045;-80
2022/11/05 03:56:02;;;;;;;0.20;0.10;;;;;;;;;;5055925;28;20151;-79
2022/11/05 03:58:28;;;;;;;;;;;;;;;;;;5038631;28;20065;-81
2022/11/05 04:00:54;;;;;;;0.20;0.10;;;;;;;;;;5039763;28;20409;-81
2022/11/05 04:03:20;;;;;;;0.20;0.10;;;;;;;;;;5037536;28;20068;-80
2022/11/05 04:13:22;;;;;;;0.20;0.10;;;;;;;;;;5023593;28;20040;-81
2022/11/05 04:14:02;;;;;;;0.20;0.10;;;;;;;;;;5040882;28;20049;-81
2022/11/05 04:24:06;;;;;;;0.20;0.10;;;;;;;;;;5040555;28;20536;-81
2022/11/05 04:24:43;;;;;;;0.25;0.25;;;;;;;;;;5052595;28;20179;-82
2022/11/05 04:27:10;;;;;;;0.20;0.10;;;;;;;;;;5022974;28;20055;-82
2022/11/05 04:32:20;;;;;;;0.20;0.10;;;;;;;;;;5053212;28;20059;-82
2022/11/05 04:34:46;;;;;;;0.20;0.10;;;;;;;;;;5036582;28;20171;-82
2022/11/05 04:37:12;;;;;;;0.20;0.10;;;;;;;;;;5050819;28;20041;-82
2022/11/05 04:39:38;;;;;;;0.20;0.10;;;;;;;;;;5050683;28;20051;-81
2022/11/05 04:42:05;;;;;;;0.20;0.10;;;;;;;;;;5039026;28;20036;-82
2022/11/05 04:44:31;;;;;;;0.20;0.10;;;;;;;;;;5040714;28;20068;-80
2022/11/05 04:46:57;;;;;;;0.20;0.00;;;;;;;;;;5034825;28;20041;-81
2022/11/05 04:49:23;;;;;;;0.20;0.10;;;;;;;;;;5037855;28;20041;-81
2022/11/05 04:51:49;;;;;;;0.20;0.10;;;;;;;;;;5053124;28;20409;-82
2022/11/05 04:54:15;;;;;;;0.20;0.10;;;;;;;;;;5053185;28;20388;-81
2022/11/05 04:56:41;;;;;;;0.20;0.00;;;;;;;;;;5053105;28;20059;-82
2022/11/05 04:59:07;;;;;;;0.20;0.10;;;;;;;;;;5038215;28;20044;-82
2022/11/05 05:01:33;;;;;;;0.20;0.10;;;;;;;;;;5038402;28;20040;-82
2022/11/05 05:03:59;;;;;;;0.20;0.10;;;;;;;;;;5023039;28;20056;-81
2022/11/05 05:06:25;;;;;;;0.20;0.10;;;;;;;;;;5019070;28;20041;-81
2022/11/05 05:08:52;;;;;;;0.20;0.10;;;;;;;;;;5036755;28;20123;-81
2022/11/05 05:11:19;;;;;;;0.20;0.10;;;;;;;;;;5040532;28;20032;-80
2022/11/05 05:13:45;;;;;;;0.20;0.10;;;;;;;;;;5040596;28;20135;-80
2022/11/05 05:16:22;;;;;;;0.20;0.10;;;;;;;;;;5046525;28;20041;-81
2022/11/05 05:18:48;;;;;;;0.20;0.10;;;;;;;;;;5038431;28;20400;-80
2022/11/05 05:24:00;;;;;;;0.20;0.10;;;;;;;;;;5056323;28;20063;-81
2022/11/05 05:26:27;;;;;;;0.20;0.08;;;;;;;;;;5053467;28;20055;-80
2022/11/05 05:28:53;;;;;;;0.20;0.10;;;;;;;;;;5042497;28;20078;-80
2022/11/05 05:31:20;;;;;;;0.20;0.00;;;;;;;;;;5057821;28;20509;-81
2022/11/05 05:33:46;;;;;;;0.20;0.10;;;;;;;;;;5041487;28;20036;-80
2022/11/05 05:36:12;;;;;;;0.20;0.10;;;;;;;;;;5039845;28;20036;-82
2022/11/05 05:38:38;;;;;;;0.20;0.10;;;;;;;;;;5023521;28;20075;-79
2022/11/05 05:41:04;;;;;;;0.20;0.10;;;;;;;;;;5023329;28;20067;-81
2022/11/05 05:43:30;;;;;;;0.20;0.10;;;;;;;;;;5056280;28;20044;-81
2022/11/05 05:45:57;;;;;;;0.20;0.10;;;;;;;;;;5047457;28;20040;-81
2022/11/05 05:48:26;;;;;;;0.82;0.70;;;;;;;;;;5051856;28;20041;-82
2022/11/05 05:50:52;;;;;;;0.20;0.10;;;;;;;;;;5039440;28;20409;-82
2022/11/05 05:53:18;;;;;;;0.20;0.10;;;;;;;;;;5037958;28;20388;-81
2022/11/05 05:55:44;;;;;;;0.20;0.10;;;;;;;;;;5037888;28;20044;-82
2022/11/05 05:58:10;;;;;;;0.20;0.10;;;;;;;;;;5052920;28;20459;-81
2022/11/05 06:00:36;;;;;;;0.20;0.10;;;;;;;;;;5041113;28;20667;-80
2022/11/05 06:03:02;;;;;;;0.20;0.10;;;;;;;;;;5055496;28;20048;-80
2022/11/05 06:05:28;;;;;;;0.20;0.10;;;;;;;;;;5034452;28;20127;-81
2022/11/05 06:07:58;;;;;;;0.95;0.30;;;;;;;;;;5036612;28;21040;-81
2022/11/05 06:10:24;;;;;;;0.20;0.10;;;;;;;;;;5057799;28;20197;-81
2022/11/05 06:12:50;;;;;;;0.20;0.10;;;;;;;;;;5053931;28;20188;-81
2022/11/05 06:15:17;;;;;;;0.20;0.10;;;;;;;;;;5054417;28;20040;-81
2022/11/05 06:17:43;;;;;;;0.20;0.10;;;;;;;;;;5035915;28;20059;-80
2022/11/05 06:20:10;;;;;;;0.20;0.10;;;;;;;;;;5037495;28;20604;-80
2022/11/05 06:22:36;;;;;;;0.20;0.00;;;;;;;;;;5043549;28;20083;-81
2022/11/05 06:25:02;;;;;;;0.20;0.10;;;;;;;;;;5058310;28;20040;-81
2022/11/05 06:27:28;;;;;;;0.20;0.10;;;;;;;;;;5042086;28;20657;-81
2022/11/05 06:29:55;;;;;;;0.20;0.10;;;;;;;;;;5036417;28;20048;-81
2022/11/05 06:32:21;;;;;;;0.20;0.10;;;;;;;;;;5031956;28;20056;-80
2022/11/05 06:34:47;;;;;;;0.20;0.10;;;;;;;;;;5053755;28;20119;-81
2022/11/05 06:37:13;;;;;;;0.20;0.10;;;;;;;;;;5035959;28;20033;-81
2022/11/05 06:39:39;;;;;;;0.20;0.10;;;;;;;;;;5033288;28;20045;-81
2022/11/05 06:42:05;;;;;;;0.20;0.10;;;;;;;;;;5038495;28;20046;-81
2022/11/05 06:44:31;;;;;;;0.20;0.10;;;;;;;;;;5038900;28;20119;-80
2022/11/05 06:46:57;;;;;;;0.20;0.10;;;;;;;;;;5046947;28;20047;-80
2022/11/05 06:49:23;;;;;;;0.20;0.10;;;;;;;;;;5032370;28;20056;-80
2022/11/05 06:51:52;;;;;;;0.20;0.03;;;;;;;;;;5050622;28;20040;-81
2022/11/05 06:54:18;;;;;;;0.20;0.10;;;;;;;;;;5034742;28;20529;-81
2022/11/05 06:56:44;;;;;;;0.20;0.10;;;;;;;;;;5054954;28;20116;-81
2022/11/05 06:59:11;;;;;;;0.20;0.10;;;;;;;;;;5036145;28;20045;-81
2022/11/05 07:01:37;;;;;;;0.20;0.10;;;;;;;;;;5053419;28;20041;-81
2022/11/05 07:04:03;;;;;;;0.20;0.10;;;;;;;;;;5031664;28;21569;-83
2022/11/05 07:06:29;;;;;;;0.20;0.10;;;;;;;;;;5048997;28;20079;-82
2022/11/05 07:08:55;;;;;;;0.20;0.10;;;;;;;;;;5050436;28;20074;-81
2022/11/05 07:11:21;;;;;;;0.20;0.10;;;;;;;;;;5050948;28;20056;-82
2022/11/05 07:13:47;;;;;;;0.20;0.10;;;;;;;;;;5034606;28;20056;-81
2022/11/05 07:16:13;;;;;;;0.43;0.40;;;;;;;;;;5036914;28;20029;-82
2022/11/05 07:18:39;;;;;;;0.20;0.10;;;;;;;;;;5037273;28;20044;-82
2022/11/05 07:21:05;;;;;;;0.20;0.20;;;;;;;;;;5049344;28;20491;-83
2022/11/05 07:23:31;;;;;;;0.20;0.10;;;;;;;;;;5036570;28;20131;-82
2022/11/05 07:25:59;;;;;;;0.20;0.10;;;;;;;;;;5046192;28;20483;-81
2022/11/05 07:28:25;;;;;;;0.20;0.10;;;;;;;;;;5048770;28;20048;-83
2022/11/05 07:30:51;;;;;;;0.20;0.10;;;;;;;;;;5049606;28;20098;-84
2022/11/05 07:33:17;;;;;;;0.20;0.10;;;;;;;;;;5041912;28;20059;-81
2022/11/05 07:35:43;;;;;;;0.20;0.10;;;;;;;;;;5032843;28;20120;-82
2022/11/05 07:38:10;;;;;;;0.20;0.10;;;;;;;;;;5034714;28;20040;-80
2022/11/05 07:40:36;;;;;;;0.20;0.10;;;;;;;;;;5019402;28;20715;-85
2022/11/05 07:43:02;;;;;;;0.20;0.10;;;;;;;;;;5035375;28;20101;-81
2022/11/05 07:45:29;;;;;;;0.20;0.10;;;;;;;;;;5055946;28;20299;-82
2022/11/05 07:47:59;;;;;;;0.20;0.10;;;;;;;;;;5056779;28;20825;-81
2022/11/05 07:50:26;;;;;;;0.20;0.10;;;;;;;;;;5054941;28;20557;-81
2022/11/05 07:52:52;;;;;;;0.20;0.10;;;;;;;;;;5053592;28;20180;-81
2022/11/05 07:55:19;;;;;;;0.20;0.10;;;;;;;;;;5055679;28;20572;-82
2022/11/05 07:57:50;;;;;;;0.20;0.10;;;;;;;;;;5053136;28;20076;-81
2022/11/05 08:00:18;;;;;;;0.20;0.10;;;;;;;;;;5052164;28;20035;-79
2022/11/05 08:02:55;;;;;;;0.20;0.10;;;;;;;;;;5039166;28;20486;-84
2022/11/05 08:05:21;;;;;;;0.20;0.10;;;;;;;;;;5055884;28;20062;-86
2022/11/05 08:07:47;;;;;;;0.20;0.10;;;;;;;;;;5040737;28;20059;-82
2022/11/05 08:10:13;;;;;;;0.20;0.10;;;;;;;;;;5025643;28;20052;-82
2022/11/05 08:12:39;;;;;;;0.20;0.10;;;;;;;;;;5024899;28;20568;-85
2022/11/05 08:15:05;;;;;;;0.20;0.10;;;;;;;;;;5036870;28;20055;-86
2022/11/05 08:17:31;;;;;;;0.20;0.10;;;;;;;;;;5043413;28;20041;-85
2022/11/05 08:19:57;;;;;;;0.20;0.10;;;;;;;;;;5034554;28;20041;-84
2022/11/05 08:22:23;;;;;;;0.20;0.10;;;;;;;;;;5045295;28;20029;-81
2022/11/05 08:24:49;;;;;;;0.20;0.10;;;;;;;;;;5045420;28;20650;-81
2022/11/05 08:27:15;;;;;;;0.20;0.10;;;;;;;;;;5046101;28;20048;-84
2022/11/05 08:29:41;;;;;;;0.20;0.10;;;;;;;;;;5058071;28;20053;-83
2022/11/05 08:32:07;;;;;;;0.20;0.10;;;;;;;;;;5045555;28;20433;-82
2022/11/05 08:34:34;;;;;;;0.20;0.10;;;;;;;;;;5043635;28;20544;-84
2022/11/05 08:37:00;;;;;;;0.20;0.10;;;;;;;;;;5054158;28;20127;-85
2022/11/05 08:39:26;;;;;;;0.20;0.10;;;;;;;;;;5033974;28;20037;-79
2022/11/05 08:41:52;;;;;;;0.20;0.10;;;;;;;;;;5040208;28;20541;-83
2022/11/05 08:44:18;;;;;;;0.20;0.10;;;;;;;;;;5043084;28;20134;-84
2022/11/05 08:46:44;;;;;;;0.20;0.10;;;;;;;;;;5019117;28;20056;-81
2022/11/05 08:49:16;;;;;;;0.20;0.10;;;;;;;;;;5030226;28;20040;-85
2022/11/05 08:51:45;;;;;;;0.20;0.10;;;;;;;;;;5027006;28;20044;-81
2022/11/05 08:54:12;;;;;;;0.20;0.10;;;;;;;;;;5063660;28;20048;-83
2022/11/05 08:56:38;;;;;;;0.20;0.10;;;;;;;;;;5048738;28;20044;-85
2022/11/05 08:59:04;;;;;;;0.20;0.10;;;;;;;;;;5064751;28;20028;-83
2022/11/05 09:01:30;;;;;;;0.55;0.30;;;;;;;;;;5026565;28;20060;-85
2022/11/05 09:03:56;;;;;;;0.20;0.10;;;;;;;;;;5029182;28;20040;-82
2022/11/05 09:06:22;;;;;;;0.20;0.10;;;;;;;;;;5061368;28;20044;-87
2022/11/05 09:08:51;;;;;;;0.20;0.10;;;;;;;;;;5053585;28;20044;-83
2022/11/05 09:11:17;;;;;;;0.20;0.10;;;;;;;;;;5029220;28;20045;-82
2022/11/05 09:13:43;;;;;;;0.22;0.17;;;;;;;;;;5035139;28;20036;-89
2022/11/05 09:16:33;;;;;;;0.20;0.10;;;;;;;;;;5037274;28;20032;-80
2022/11/05 09:19:01;;;;;;;0.20;0.10;;;;;;;;;;5034842;28;20035;-83
2022/11/05 09:21:27;;;;;;;0.20;0.10;;;;;;;;;;5053230;28;20036;-82
2022/11/05 09:23:53;;;;;;;0.20;0.10;;;;;;;;;;5016981;28;20083;-84
2022/11/05 09:26:19;;;;;;;0.20;0.10;;;;;;;;;;5036048;28;20055;-83
2022/11/05 09:28:45;;;;;;;0.20;0.05;;;;;;;;;;5071245;22;20052;-85
2022/11/05 09:31:11;;;;;;;0.20;0.08;;;;;;;;;;5047648;28;20040;-84
2022/11/05 09:33:38;;;;;;;0.20;0.10;;;;;;;;;;5066233;28;20046;-83
2022/11/05 09:36:07;;;;;;;0.20;0.10;;;;;;;;;;5056654;28;20039;-86
2022/11/05 09:38:34;;;;;;;0.20;0.08;;;;;;;;;;5073948;28;20519;-84
2022/11/05 09:41:02;;;;;;;0.20;0.10;;;;;;;;;;5066761;28;20130;-85
2022/11/05 09:43:36;;;;;;;0.20;0.00;;;;;;;;;;5049444;28;20094;-85
2022/11/05 09:46:10;;;;;;;0.20;0.10;;;;;;;;;;5056793;28;20036;-84
2022/11/05 09:48:38;;;;;;;0.20;0.10;;;;;;;;;;5056636;28;20041;-83
2022/11/05 09:51:05;;;;;;;0.20;0.00;;;;;;;;;;5046065;28;20150;-85
2022/11/05 09:53:31;;;;;;;0.30;0.20;;;;;;;;;;5068381;28;20525;-84
2022/11/05 09:56:19;;;;;;;0.20;0.10;;;;;;;;;;5049465;28;20131;-83
2022/11/05 09:59:04;;;;;;;0.20;0.00;;;;;;;;;;5050547;28;20092;-84
2022/11/05 10:01:33;;;;;;;0.20;0.10;;;;;;;;;;5035643;28;20102;-83
2022/11/05 10:04:01;;;;;;;0.20;0.10;;;;;;;;;;5056018;28;20044;-85
2022/11/05 10:06:28;;;;;;;0.20;0.10;;;;;;;;;;5067357;28;20048;-83
2022/11/05 10:09:14;;;;;;;0.20;0.10;;;;;;;;;;5069894;28;21029;-83
2022/11/05 10:11:42;;;;;;;0.68;0.55;;;;;;;;;;5063376;28;20256;-83
2022/11/05 10:14:13;;;;;;;0.20;0.10;;;;;;;;;;5058557;28;20040;-83
2022/11/05 10:16:45;;;;;;;0.20;0.10;;;;;;;;;;5071446;28;20118;-84
2022/11/05 10:19:20;;;;;;;0.20;0.00;;;;;;;;;;5049940;28;20076;-86
2022/11/05 10:21:55;;;;;;;0.75;0.32;;;;;;;;;;5048985;28;20134;-84
2022/11/05 10:24:21;;;;;;;0.20;0.10;;;;;;;;;;5068895;28;20540;-85
2022/11/05 10:26:50;;;;;;;0.20;0.10;;;;;;;;;;5050704;28;20047;-84
2022/11/05 10:29:28;;;;;;;0.20;0.10;;;;;;;;;;5071540;28;20638;-85
2022/11/05 10:31:55;;;;;;;0.20;0.10;;;;;;;;;;5063462;28;20039;-83
2022/11/05 10:34:23;;;;;;;0.20;0.10;;;;;;;;;;5063414;28;20070;-83
2022/11/05 10:36:49;;;;;;;0.20;0.10;;;;;;;;;;5064839;28;20119;-82
2022/11/05 10:39:17;;;;;;;0.20;0.10;;;;;;;;;;5034571;28;20034;-84
2022/11/05 10:42:01;;;;;;;0.45;0.45;;;;;;;;;;5072232;28;20113;-83
2022/11/05 10:44:30;;;;;;;0.20;0.10;;;;;;;;;;5064680;28;20682;-87
2022/11/05 10:47:15;;;;;;;0.20;0.20;;;;;;;;;;5060836;28;20043;-84
2022/11/05 10:49:44;;;;;;;0.20;0.10;;;;;;;;;;5071721;28;20032;-84
2022/11/05 10:52:33;;;;;;;3.40;0.98;;;;;;;;;;5068545;28;20048;-82
2022/11/05 10:55:00;;;;;;;0.20;0.10;;;;;;;;;;5044672;28;20044;-81
2022/11/05 10:57:26;;;;;;;0.20;0.10;;;;;;;;;;5056031;28;20032;-79
2022/11/05 10:59:53;;;;;;;0.20;0.10;;;;;;;;;;5060051;28;20459;-81
2022/11/05 11:02:29;;;;;;;0.20;0.10;;;;;;;;;;5073302;28;20651;-83
2022/11/05 11:04:57;;;;;;;0.28;0.10;;;;;;;;;;5061296;28;20075;-83
2022/11/05 11:07:24;;;;;;;0.30;0.25;;;;;;;;;;5058152;28;20044;-83
2022/11/05 11:09:56;;;;;;;0.20;0.10;;;;;;;;;;5049049;28;20196;-83
2022/11/05 11:12:26;;;;;;;0.20;0.10;;;;;;;;;;5074818;28;20086;-82
2022/11/05 11:15:11;;;;;;;0.20;0.10;;;;;;;;;;5078071;28;20461;-83
2022/11/05 11:17:37;;;;;;;0.20;0.10;;;;;;;;;;5057630;28;20052;-83
2022/11/05 11:20:23;;;;;;;0.20;0.10;;;;;;;;;;5063209;28;20481;-85
2022/11/05 11:22:59;;;;;;;0.20;0.10;;;;;;;;;;5061805;28;20474;-81
2022/11/05 11:25:27;;;;;;;0.35;0.30;;;;;;;;;;5076604;28;20047;-83
2022/11/05 11:27:54;;;;;;;0.20;0.10;;;;;;;;;;5077749;28;20044;-81
2022/11/05 11:30:20;;;;;;;0.20;0.10;;;;;;;;;;5043206;28;20098;-84
2022/11/05 11:32:47;;;;;;;0.20;0.10;;;;;;;;;;5065980;28;20092;-84
2022/11/05 11:35:21;;;;;;;0.20;0.10;;;;;;;;;;5045013;28;20054;-82
2022/11/05 11:37:47;;;;;;;0.20;0.00;;;;;;;;;;5057515;28;20043;-84
2022/11/05 11:40:19;;;;;;;0.20;0.10;;;;;;;;;;5065410;28;20067;-82
2022/11/05 11:42:46;;;;;;;0.20;0.05;;;;;;;;;;5061945;28;20039;-82
2022/11/05 11:45:15;;;;;;;0.20;0.10;;;;;;;;;;5061702;28;20127;-84
2022/11/05 11:47:45;;;;;;;0.20;0.10;;;;;;;;;;5066069;28;20058;-82
2022/11/05 11:50:30;;;;;;;0.20;0.10;;;;;;;;;;5061613;28;20032;-83
2022/11/05 11:53:15;;;;;;;0.20;0.10;;;;;;;;;;5064866;28;20040;-80
2022/11/05 11:55:41;;;;;;;0.20;0.10;;;;;;;;;;5079311;28;20047;-84
2022/11/05 11:58:09;;;;;;;0.20;0.10;;;;;;;;;;5052259;28;20068;-83
2022/11/05 12:00:37;;;;;;;0.20;0.10;;;;;;;;;;5064447;28;20129;-80
2022/11/05 12:03:13;;;;;;;0.20;0.10;;;;;;;;;;5063851;28;20688;-84
2022/11/05 12:05:45;;;;;;;0.50;0.43;;;;;;;;;;5075529;28;20691;-83
2022/11/05 12:08:14;;;;;;;0.20;0.00;;;;;;;;;;5075130;28;20453;-82
2022/11/05 12:10:43;;;;;;;0.20;0.00;;;;;;;;;;5057443;28;20044;-80
2022/11/05 12:13:21;;;;;;;0.20;0.10;;;;;;;;;;5070820;28;20032;-80
2022/11/05 12:15:56;;;;;;;0.20;0.10;;;;;;;;;;5055305;28;20047;-83
2022/11/05 12:18:31;;;;;;;0.20;0.10;;;;;;;;;;5077880;28;20101;-83
2022/11/05 12:21:06;;;;;;;0.20;0.08;;;;;;;;;;5060230;28;20340;-82
2022/11/05 12:23:52;;;;;;;0.20;0.10;;;;;;;;;;5078923;28;20036;-82
2022/11/05 12:26:36;;;;;;;0.20;0.10;;;;;;;;;;5053393;28;20040;-82
2022/11/05 12:29:21;;;;;;;0.20;0.10;;;;;;;;;;5076386;28;20064;-83
2022/11/05 12:31:54;;;;;;;0.35;0.20;;;;;;;;;;5056494;28;20051;-83
2022/11/05 12:34:32;;;;;;;0.20;0.10;;;;;;;;;;5062833;28;20032;-82
2022/11/05 12:37:14;;;;;;;0.20;0.10;;;;;;;;;;5053037;28;20062;-81
2022/11/05 12:39:46;;;;;;;0.20;0.10;;;;;;;;;;5057145;28;20032;-82
2022/11/05 12:42:16;;;;;;;0.20;0.10;;;;;;;;;;5057021;28;20047;-83
2022/11/05 12:44:42;;;;;;;0.20;0.10;;;;;;;;;;5062423;28;20055;-81
2022/11/05 12:47:27;;;;;;;0.20;0.10;;;;;;;;;;5078903;28;20151;-85
2022/11/05 12:49:59;;;;;;;0.20;0.10;;;;;;;;;;5056003;28;20123;-84
2022/11/05 12:52:36;;;;;;;0.20;0.10;;;;;;;;;;5059980;28;20062;-81
2022/11/05 12:55:11;;;;;;;0.20;0.10;;;;;;;;;;5062891;28;20093;-81
2022/11/05 12:57:41;;;;;;;0.20;0.10;;;;;;;;;;5059057;28;20035;-82
2022/11/05 13:00:19;;;;;;;0.20;0.10;;;;;;;;;;5060110;28;20379;-85
2022/11/05 13:03:18;;;;;;;0.20;0.10;;;;;;;;;;5075214;28;20032;-83
2022/11/05 13:06:04;;;;;;;0.20;0.10;;;;;;;;;;5012444;28;20040;-81
2022/11/05 13:08:43;;;;;;;0.20;0.10;;;;;;;;;;5066067;28;20045;-84
2022/11/05 13:11:24;;;;;;;0.20;0.10;;;;;;;;;;5058532;28;20044;-85
2022/11/05 13:13:50;;;;;;;0.20;0.10;;;;;;;;;;5067918;28;20067;-83
2022/11/05 13:16:23;;;;;;;0.20;0.20;;;;;;;;;;5065725;28;20104;-86
2022/11/05 13:18:54;;;;;;;0.20;0.10;;;;;;;;;;5062599;28;20035;-85
2022/11/05 13:21:23;;;;;;;0.20;0.10;;;;;;;;;;5064524;28;20040;-84
2022/11/05 13:23:55;;;;;;;0.20;0.10;;;;;;;;;;5082754;28;20100;-84
2022/11/05 13:26:27;;;;;;;0.20;0.10;;;;;;;;;;5063763;28;20038;-82
2022/11/05 13:28:53;;;;;;;;;;;;;;;;;;5062160;28;20055;-82
2022/11/05 13:31:23;;;;;;;0.20;0.10;;;;;;;;;;5073951;28;19916;-84
2022/11/05 13:33:50;;;;;;;0.20;0.10;;;;;;;;;;5060249;28;20672;-84
2022/11/05 13:39:10;;;;;;;0.20;0.10;;;;;;;;;;5068278;28;20046;-85
2022/11/05 13:41:49;;;;;;;0.20;0.10;;;;;;;;;;5051336;28;20119;-83
2022/11/05 13:44:25;;;;;;;0.20;0.10;;;;;;;;;;5054073;28;20040;-83
2022/11/05 13:46:51;;;;;;;0.40;0.40;;;;;;;;;;5069893;28;20164;-82
2022/11/05 13:49:17;;;;;;;0.20;0.20;;;;;;;;;;5055046;28;20118;-82
2022/11/05 13:51:43;;;;;;;0.20;0.10;;;;;;;;;;5059490;28;20122;-81
2022/11/05 13:54:18;;;;;;;0.30;0.30;;;;;;;;;;5064463;28;20299;-82
2022/11/05 13:56:56;;;;;;;0.20;0.10;;;;;;;;;;5069754;28;20044;-81
2022/11/05 13:59:49;;;;;;;0.20;0.10;;;;;;;;;;5042912;28;20051;-82
2022/11/05 14:02:20;;;;;;;0.20;0.10;;;;;;;;;;5055522;28;20032;-80
2022/11/05 14:04:48;;;;;;;0.20;0.10;;;;;;;;;;5051543;28;20044;-81
2022/11/05 14:07:19;;;;;;;0.20;0.10;;;;;;;;;;5067119;28;20371;-81
2022/11/05 14:09:45;;;;;;;0.20;0.10;;;;;;;;;;5061345;28;20323;-83
2022/11/05 14:12:18;;;;;;;0.20;0.10;;;;;;;;;;5075487;28;20040;-82
2022/11/05 14:14:47;;;;;;;0.20;0.10;;;;;;;;;;5069723;28;20045;-81
2022/11/05 14:17:14;;;;;;;0.20;0.10;;;;;;;;;;5066510;28;20044;-82
2022/11/05 14:19:59;;;;;;;0.20;0.10;;;;;;;;;;5047967;28;20108;-83
2022/11/05 14:22:31;;;;;;;0.20;0.10;;;;;;;;;;5040754;28;20047;-82
2022/11/05 14:24:58;;;;;;;0.20;0.10;;;;;;;;;;5041714;28;20142;-80
2022/11/05 14:27:36;;;;;;;0.20;0.10;;;;;;;;;;5053453;28;20270;-81
2022/11/05 14:30:22;;;;;;;0.20;0.13;;;;;;;;;;5052982;28;20055;-80
2022/11/05 14:32:49;;;;;;;0.20;0.10;;;;;;;;;;5069055;28;20041;-81
2022/11/05 14:35:15;;;;;;;0.20;0.10;;;;;;;;;;5051457;28;20046;-80
2022/11/05 14:37:50;;;;;;;0.20;0.10;;;;;;;;;;5068539;28;20075;-81
2022/11/05 14:40:22;;;;;;;0.20;0.10;;;;;;;;;;5067277;28;20159;-82
2022/11/05 14:42:53;;;;;;;0.20;0.10;;;;;;;;;;5070212;28;20040;-82
2022/11/05 14:45:39;;;;;;;0.68;0.68;;;;;;;;;;5048627;28;20516;-83
2022/11/05 14:48:06;;;;;;;0.20;0.10;;;;;;;;;;5050122;28;20490;-81
2022/11/05 14:50:38;;;;;;;0.20;0.10;;;;;;;;;;5046523;28;20068;-80
2022/11/05 14:53:24;;;;;;;0.20;0.10;;;;;;;;;;5063289;28;20552;-81
2022/11/05 14:55:58;;;;;;;0.20;0.10;;;;;;;;;;5062303;28;20127;-82
2022/11/05 14:58:24;;;;;;;0.20;0.10;;;;;;;;;;5045474;28;20162;-81
2022/11/05 15:00:51;;;;;;;0.20;0.20;;;;;;;;;;5064438;28;20062;-80
2022/11/05 15:03:32;;;;;;;0.20;0.10;;;;;;;;;;5050126;28;20039;-79
2022/11/05 15:06:07;;;;;;;0.20;0.10;;;;;;;;;;5065805;28;20473;-83
2022/11/05 15:08:33;;;;;;;0.20;0.10;;;;;;;;;;5064540;28;20040;-79
2022/11/05 15:11:14;;;;;;;0.20;0.10;;;;;;;;;;5067573;28;20047;-81
2022/11/05 15:14:00;;;;;;;0.20;0.10;;;;;;;;;;5054070;28;20040;-81
2022/11/05 15:16:32;;;;;;;0.20;0.10;;;;;;;;;;5037823;28;20052;-82
2022/11/05 15:18:59;;;;;;;0.20;0.10;;;;;;;;;;5046393;28;20043;-80
2022/11/05 15:21:26;;;;;;;0.20;0.10;;;;;;;;;;5067372;28;20046;-79
2022/11/05 15:23:55;;;;;;;0.20;0.10;;;;;;;;;;5042959;28;20045;-80
2022/11/05 15:26:21;;;;;;;0.20;0.10;;;;;;;;;;5063318;28;20044;-79
2022/11/05 15:28:48;;;;;;;0.20;0.10;;;;;;;;;;5103963;22;21121;-82
2022/11/05 15:31:14;;;;;;;0.20;0.10;;;;;;;;;;5111090;27;20529;-83
2022/11/05 15:33:42;;;;;;;0.20;0.10;;;;;;;;;;5109754;27;20047;-83
2022/11/05 15:36:22;;;;;;;0.20;0.10;;;;;;;;;;5092250;28;20047;-82
2022/11/05 15:38:48;;;;;;;0.20;0.10;;;;;;;;;;5107457;27;20042;-83
2022/11/05 15:41:16;;;;;;;0.20;0.10;;;;;;;;;;5108264;27;20031;-83
2022/11/05 15:43:43;;;;;;;0.20;0.10;;;;;;;;;;5105897;28;20035;-82
2022/11/05 15:46:16;;;;;;;2.13;0.43;;;;;;;;;;5081429;28;20078;-79